Karl Stefan Memorial Airport Norfolk US
ICAO: KOFK
IATA: OFK
Category: Medium
Scheduled Services: No

Elevation: 1573 ft
TransAlt. 18000 ft.

Airport Communications:
ASOS:119.025
COLUMBUS RDO:122.15
CTAF/UNICOM:122.7

KOFK Zoom In..

Runways:

(A) RW 01 length 5800 ft width 100 ft
ILS 111.50 / hdg 14

(B) RW 14 length 5800 ft width 100 ft
---- / hdg 137

(C) RW 19 length 5800 ft width 100 ft
---- / hdg 194

(D) RW 32 length 5800 ft width 100 ft
---- / hdg 317

Location; KOFK
Day. 21 / Time. 05.56 Zulu
* Altimeter: 30.03
* Temperature: 19° c. 66.2°f.
* Wind from: 270° Speed 03 kn.
Dewpoint: 18° c.
Visibility: 10 Statute Miles.
Clouds: Clear (automated report).

KOFK 210556Z AUTO 27003KT 10SM CLR 19/18 A3003 RMK AO2 SLP158 T01890183 10283 20189 402890156 51016


Wind From 270°
Speed 03 kn.

 
 
jpsmedia.com for Web Design worldairports.se 2018   terms of use